Farmers, Kentucky
Current Conditions -  °F | °C
As of 4:10 PM on Monday 22 Dec 2014 (Local Time) from KSYM Reporting Station
Broken Clouds Broken Clouds  
Wind Chill: 55°   Ceiling: 11000
Heat Index: 55°   Visibility: 10mi
Dew Point: 41°   Wind: 5mph
Humidity: 58%   Direction: 120°ESE
Pressure: 29.85"   Gusts: 14mph
Location:  38.14°N, 83.55°W
Report Text: KSYM 222110Z AUTO 12004G12KT 10SM BKN110 13/05 A2985 RMK AO2
Loading
Personal Weather Stations






























Interactive Weather Map New forecast layout! Learn more

10-Day Weather Forecast

Advertisements
Track Severe Weather on mobile